Time;durP1;ratioP1;P1;durP2;ratioP2;P2;SDS_P1;SDS_P2;PMS_P1;PMS_P2;Temp;Humidity;BMP_temperature;BMP_pressure;BME280_temperature;BME280_humidity;BME280_pressure;Samples;Min_cycle;Max_cycle;Signal;HPM_P1;HPM_P2
2023/09/06 00:00:43;;;;;;;2.05;0.63;;;19.00;99.90;;;;;;5095648;28;20208;-78
2023/09/06 00:03:14;;;;;;;3.05;1.10;;;19.10;99.90;;;;;;5095732;28;20204;-78
2023/09/06 00:05:45;;;;;;;3.03;0.88;;;19.00;99.90;;;;;;5096324;28;20294;-78
2023/09/06 00:08:17;;;;;;;2.45;0.80;;;19.10;99.90;;;;;;5095240;28;20632;-80
2023/09/06 00:10:48;;;;;;;6.68;0.95;;;19.10;99.90;;;;;;5095373;28;20185;-78
2023/09/06 00:13:20;;;;;;;4.53;1.10;;;19.20;99.90;;;;;;5095307;28;20188;-77
2023/09/06 00:15:51;;;;;;;5.55;1.00;;;19.20;99.90;;;;;;5089976;28;20559;-78
2023/09/06 00:18:22;;;;;;;6.95;1.13;;;19.30;99.90;;;;;;5095269;28;20715;-78
2023/09/06 00:20:53;;;;;;;3.35;0.95;;;19.30;99.90;;;;;;5083490;28;20204;-78
2023/09/06 00:23:24;;;;;;;4.55;0.90;;;19.50;99.90;;;;;;5075525;28;20296;-78
2023/09/06 00:25:55;;;;;;;3.47;1.10;;;19.60;99.90;;;;;;5075084;28;20185;-78
2023/09/06 00:28:28;;;;;;;3.88;0.75;;;19.80;99.90;;;;;;5075110;28;20210;-78
2023/09/06 00:30:59;;;;;;;4.18;0.80;;;19.90;99.90;;;;;;5092805;28;20198;-77
2023/09/06 00:33:33;;;;;;;2.97;0.88;;;19.90;99.90;;;;;;5084503;28;20204;-77
2023/09/06 00:36:06;;;;;;;2.30;0.80;;;20.00;99.90;;;;;;5094931;28;20210;-79
2023/09/06 00:38:38;;;;;;;5.00;0.82;;;20.20;99.90;;;;;;5095214;28;20208;-78
2023/09/06 00:41:09;;;;;;;1.88;0.70;;;20.30;99.90;;;;;;5094854;28;20195;-77
2023/09/06 00:43:42;;;;;;;6.55;1.35;;;20.40;99.90;;;;;;5094973;28;20199;-77
2023/09/06 00:46:12;;;;;;;4.63;1.20;;;20.60;99.90;;;;;;5095009;28;20192;-78
2023/09/06 00:48:43;;;;;;;3.28;0.85;;;20.80;99.90;;;;;;5092170;28;20531;-78
2023/09/06 00:51:14;;;;;;;4.25;0.90;;;20.80;99.90;;;;;;5092187;28;20230;-79
2023/09/06 00:53:45;;;;;;;3.17;0.80;;;20.60;99.90;;;;;;5094520;28;20211;-78
2023/09/06 00:56:17;;;;;;;3.50;0.70;;;20.70;99.90;;;;;;5094229;28;20219;-79
2023/09/06 00:58:49;;;;;;;5.47;0.77;;;20.90;99.90;;;;;;5094617;28;20223;-81
2023/09/06 01:01:21;;;;;;;4.88;1.00;;;21.00;99.90;;;;;;5094562;28;20936;-78
2023/09/06 01:03:51;;;;;;;3.03;0.80;;;21.10;99.90;;;;;;5094924;28;20644;-79
2023/09/06 01:06:28;;;;;;;3.38;0.82;;;21.20;99.90;;;;;;5093400;28;20192;-78
2023/09/06 01:09:00;;;;;;;2.03;0.70;;;21.30;99.90;;;;;;5084943;28;20193;-81
2023/09/06 01:11:32;;;;;;;5.25;0.90;;;21.40;99.90;;;;;;5090027;28;20200;-78
2023/09/06 01:14:05;;;;;;;4.82;0.98;;;21.50;99.90;;;;;;5094489;28;20275;-84
2023/09/06 01:16:38;;;;;;;3.85;1.08;;;21.60;99.90;;;;;;5094351;28;20636;-79
2023/09/06 01:19:12;;;;;;;5.82;1.00;;;21.70;99.90;;;;;;5094274;28;20624;-80
2023/09/06 01:21:48;;;;;;;4.88;1.25;;;21.80;99.90;;;;;;5075679;28;20196;-89
2023/09/06 01:24:21;;;;;;;3.33;0.85;;;21.40;99.90;;;;;;5073938;28;20562;-84
2023/09/06 01:26:53;;;;;;;4.40;0.90;;;21.40;99.90;;;;;;5076014;28;20631;-84
2023/09/06 01:29:23;;;;;;;9.38;4.80;;;21.30;99.90;;;;;;5094328;28;20190;-83
2023/09/06 01:31:54;;;;;;;7.43;1.50;;;21.50;99.90;;;;;;5090929;28;20200;-81
2023/09/06 01:34:25;;;;;;;2.90;1.00;;;21.50;99.90;;;;;;5094140;28;20196;-85
2023/09/06 01:36:56;;;;;;;4.00;0.85;;;21.60;99.90;;;;;;5090726;28;20196;-82
2023/09/06 01:39:29;;;;;;;5.53;0.80;;;21.80;99.90;;;;;;5073116;28;20740;-83
2023/09/06 01:42:00;;;;;;;5.70;1.02;;;21.80;99.90;;;;;;5078208;28;20300;-81
2023/09/06 01:44:31;;;;;;;4.10;0.98;;;21.80;99.90;;;;;;5091818;28;20196;-79
2023/09/06 01:47:03;;;;;;;5.82;1.00;;;21.80;99.90;;;;;;5073748;28;20593;-82
2023/09/06 01:49:34;;;;;;;5.53;1.00;;;21.70;99.90;;;;;;5073622;28;20715;-85
2023/09/06 01:52:05;;;;;;;5.55;1.00;;;21.40;99.90;;;;;;5073030;28;20262;-79
2023/09/06 01:54:37;;;;;;;4.15;1.00;;;21.40;99.90;;;;;;5076335;28;20232;-79
2023/09/06 01:57:08;;;;;;;4.55;0.95;;;21.50;99.90;;;;;;5093891;28;20200;-85
2023/09/06 01:59:39;;;;;;;3.75;1.00;;;21.60;99.90;;;;;;5093589;28;20220;-77
2023/09/06 02:02:10;;;;;;;4.80;1.20;;;21.60;99.90;;;;;;5093400;28;20243;-80
2023/09/06 02:04:41;;;;;;;4.32;1.30;;;21.70;99.90;;;;;;5093692;28;20192;-87
2023/09/06 02:07:11;;;;;;;4.78;1.20;;;21.60;99.90;;;;;;5093561;28;20564;-79
2023/09/06 02:09:44;;;;;;;7.00;1.30;;;21.90;99.90;;;;;;5092802;28;20195;-78
2023/09/06 02:12:16;;;;;;;2.53;1.30;;;22.00;99.90;;;;;;5093905;28;20234;-83
2023/09/06 02:14:47;;;;;;;5.15;1.48;;;22.20;99.90;;;;;;5093775;28;20200;-88
2023/09/06 02:17:18;;;;;;;5.05;1.90;;;22.10;99.90;;;;;;5093507;28;20224;-89
2023/09/06 02:19:49;;;;;;;3.60;1.90;;;22.00;99.90;;;;;;5093289;28;20231;-90
2023/09/06 02:22:20;;;;;;;7.22;2.70;;;22.00;99.90;;;;;;5093558;28;20184;-86
2023/09/06 02:24:52;;;;;;;6.95;3.08;;;21.90;99.90;;;;;;5087744;28;20249;-86
2023/09/06 02:27:23;;;;;;;5.93;2.78;;;21.80;99.90;;;;;;5093188;28;20200;-78
2023/09/06 02:29:54;;;;;;;7.95;3.13;;;21.70;99.90;;;;;;5092109;28;20196;-81
2023/09/06 02:32:26;;;;;;;9.85;3.15;;;21.90;99.90;;;;;;5093142;28;20188;-88
2023/09/06 02:34:57;;;;;;;4.85;2.90;;;21.90;99.90;;;;;;5093372;28;20238;-82
2023/09/06 02:37:27;;;;;;;5.88;2.55;;;22.00;99.90;;;;;;5092987;28;20188;-86
2023/09/06 02:40:00;;;;;;;6.65;2.50;;;22.10;99.90;;;;;;5093185;28;20235;-90
2023/09/06 02:42:31;;;;;;;6.22;2.40;;;21.90;99.90;;;;;;5093485;28;20192;-85
2023/09/06 02:45:02;;;;;;;4.68;1.98;;;21.70;99.90;;;;;;5090662;28;20192;-85
2023/09/06 02:47:34;;;;;;;6.47;2.50;;;21.60;99.90;;;;;;5093031;28;20184;-82
2023/09/06 02:50:06;;;;;;;6.32;2.80;;;21.60;99.90;;;;;;5092785;28;20184;-84
2023/09/06 02:52:37;;;;;;;4.50;2.40;;;21.60;99.90;;;;;;5093000;28;20722;-79
2023/09/06 02:55:11;;;;;;;5.80;2.50;;;21.30;99.90;;;;;;5080630;28;20701;-88
2023/09/06 02:57:42;;;;;;;4.35;2.47;;;21.20;99.90;;;;;;5073007;28;20196;-86
2023/09/06 03:00:24;;;;;;;5.68;2.13;;;21.00;99.90;;;;;;5073253;28;20224;-75
2023/09/06 03:02:58;;;;;;;6.38;2.08;;;21.20;99.90;;;;;;5082174;28;20208;-77
2023/09/06 03:05:30;;;;;;;3.95;2.22;;;21.10;99.90;;;;;;5073059;28;20242;-79
2023/09/06 03:08:01;;;;;;;3.88;1.90;;;21.20;99.90;;;;;;5073283;28;20634;-80
2023/09/06 03:10:34;;;;;;;3.90;1.88;;;21.10;99.90;;;;;;5088347;28;20246;-82
2023/09/06 03:13:05;;;;;;;5.53;1.83;;;21.00;99.90;;;;;;5092922;28;20195;-81
2023/09/06 03:15:36;;;;;;;5.85;1.83;;;20.90;99.90;;;;;;5092858;28;20675;-81
2023/09/06 03:18:07;;;;;;;3.88;1.90;;;21.10;99.90;;;;;;5091037;28;20184;-83
2023/09/06 03:20:44;;;;;;;3.83;1.88;;;21.20;99.90;;;;;;5090817;28;20223;-83
2023/09/06 03:23:25;;;;;;;4.95;1.85;;;21.20;99.90;;;;;;5096617;28;20188;-81
2023/09/06 03:25:58;;;;;;;4.07;2.13;;;21.20;99.90;;;;;;5096381;28;20188;-86
2023/09/06 03:28:29;;;;;;;6.05;2.42;;;21.20;99.90;;;;;;5097235;28;20633;-89
2023/09/06 03:31:00;;;;;;;5.80;3.08;;;21.20;99.90;;;;;;5096512;28;20632;-89
2023/09/06 03:33:31;;;;;;;5.53;2.80;;;21.30;99.90;;;;;;5096442;28;20624;-85
2023/09/06 03:36:07;;;;;;;4.55;2.20;;;21.20;99.90;;;;;;5090585;28;20196;-83
2023/09/06 03:38:38;;;;;;;5.20;1.90;;;21.30;99.90;;;;;;5096531;28;20208;-83
2023/09/06 03:41:11;;;;;;;8.40;3.08;;;21.20;99.90;;;;;;5096350;28;20189;-84
2023/09/06 03:43:42;;;;;;;6.60;2.55;;;21.10;99.90;;;;;;5095866;28;20211;-86
2023/09/06 03:46:14;;;;;;;5.72;1.83;;;21.10;99.90;;;;;;5096091;28;20271;-86
2023/09/06 03:48:45;;;;;;;3.90;2.05;;;21.10;99.90;;;;;;5095789;28;20247;-86
2023/09/06 03:51:16;;;;;;;5.95;1.83;;;21.00;99.90;;;;;;5096203;28;20260;-85
2023/09/06 03:53:47;;;;;;;4.60;1.73;;;20.90;99.90;;;;;;5089641;28;20199;-85
2023/09/06 03:56:20;;;;;;;4.55;1.92;;;20.90;99.90;;;;;;5095893;28;20279;-83
2023/09/06 03:58:53;;;;;;;3.95;1.60;;;20.90;99.90;;;;;;5095881;28;20212;-82
2023/09/06 04:01:25;;;;;;;3.05;1.35;;;20.80;99.90;;;;;;5095522;28;20204;-87
2023/09/06 04:03:56;;;;;;;4.45;1.20;;;20.80;99.90;;;;;;5095808;28;20192;-89
2023/09/06 04:06:29;;;;;;;4.82;1.42;;;20.80;99.90;;;;;;5096071;28;20190;-86
2023/09/06 04:08:59;;;;;;;3.83;1.20;;;20.90;99.90;;;;;;5089848;28;20231;-85
2023/09/06 04:11:32;;;;;;;2.63;1.15;;;20.70;99.90;;;;;;5093133;28;20207;-85
2023/09/06 04:14:03;;;;;;;3.20;1.00;;;20.80;99.90;;;;;;5095267;28;20632;-86
2023/09/06 04:16:34;;;;;;;5.90;1.10;;;20.80;99.90;;;;;;5094332;28;20275;-84
2023/09/06 04:19:06;;;;;;;4.65;1.08;;;20.70;99.90;;;;;;5095175;28;20675;-82
2023/09/06 04:21:37;;;;;;;3.05;1.00;;;20.70;99.90;;;;;;5095480;28;20557;-82
2023/09/06 04:24:09;;;;;;;4.00;1.05;;;20.60;99.90;;;;;;5090413;28;20197;-86
2023/09/06 04:26:42;;;;;;;3.65;1.02;;;20.60;99.90;;;;;;5094963;28;20254;-90
2023/09/06 04:29:12;;;;;;;5.18;0.90;;;20.70;99.90;;;;;;5095104;28;20196;-84
2023/09/06 04:31:44;;;;;;;5.68;1.05;;;20.80;99.90;;;;;;5093882;28;20188;-83
2023/09/06 04:34:14;;;;;;;3.38;0.80;;;20.70;99.90;;;;;;5095022;28;20195;-82
2023/09/06 04:36:45;;;;;;;4.40;1.50;;;20.80;99.90;;;;;;5094856;28;20196;-81
2023/09/06 04:39:17;;;;;;;4.50;1.20;;;20.80;99.90;;;;;;5094758;28;20254;-82
2023/09/06 04:41:49;;;;;;;2.63;0.90;;;20.80;99.90;;;;;;5085042;28;20199;-87
2023/09/06 04:44:24;;;;;;;3.63;0.98;;;20.60;99.90;;;;;;5094526;28;20188;-83
2023/09/06 04:46:55;;;;;;;4.50;0.95;;;20.60;99.90;;;;;;5093441;28;20200;-83
2023/09/06 04:49:25;;;;;;;4.85;1.65;;;20.60;99.90;;;;;;5094612;28;20188;-84
2023/09/06 04:51:56;;;;;;;4.45;1.08;;;20.50;99.90;;;;;;5094573;28;20236;-86
2023/09/06 04:54:27;;;;;;;4.43;1.00;;;20.50;99.90;;;;;;5094725;28;20529;-91
2023/09/06 04:57:00;;;;;;;5.28;1.33;;;20.50;99.90;;;;;;5094792;28;20184;-84
2023/09/06 04:59:33;;;;;;;3.72;0.80;;;20.50;99.90;;;;;;5093378;28;20208;-83
2023/09/06 05:02:04;;;;;;;3.90;0.95;;;20.50;99.90;;;;;;5089920;28;20195;-83
2023/09/06 05:04:36;;;;;;;3.28;0.85;;;20.50;99.90;;;;;;5094505;28;20229;-86
2023/09/06 05:07:08;;;;;;;3.22;0.90;;;20.40;99.90;;;;;;5094513;28;20250;-84
2023/09/06 05:09:38;;;;;;;6.45;1.00;;;20.50;99.90;;;;;;5093802;28;20548;-89
2023/09/06 05:12:11;;;;;;;3.78;0.90;;;20.60;99.90;;;;;;5084999;28;20193;-88
2023/09/06 05:14:42;;;;;;;4.93;1.10;;;20.60;99.90;;;;;;5093050;28;20210;-83
2023/09/06 05:17:13;;;;;;;6.68;0.88;;;20.50;99.90;;;;;;5094202;28;20272;-83
2023/09/06 05:19:47;;;;;;;4.45;1.17;;;20.40;99.90;;;;;;5093674;28;20689;-84
2023/09/06 05:22:17;;;;;;;11.07;1.15;;;20.50;99.90;;;;;;5093341;28;20189;-90
2023/09/06 05:24:49;;;;;;;2.58;0.90;;;20.60;99.90;;;;;;5094308;28;20192;-87
2023/09/06 05:27:21;;;;;;;4.72;0.80;;;20.60;99.90;;;;;;5094296;28;20200;-90
2023/09/06 05:29:52;;;;;;;4.68;1.00;;;20.50;99.90;;;;;;5088550;28;20274;-87
2023/09/06 05:32:23;;;;;;;2.67;0.70;;;20.50;99.90;;;;;;5093248;28;20192;-84
2023/09/06 05:34:53;;;;;;;2.83;0.75;;;20.50;99.90;;;;;;5093406;28;20184;-88
2023/09/06 05:37:25;;;;;;;3.20;0.80;;;20.60;99.90;;;;;;5094084;28;20283;-83
2023/09/06 05:39:56;;;;;;;4.07;0.90;;;20.50;99.90;;;;;;5093874;28;20268;-86
2023/09/06 05:42:29;;;;;;;4.00;0.75;;;20.40;99.90;;;;;;5093944;28;20544;-82
2023/09/06 05:44:59;;;;;;;4.47;0.98;;;20.10;99.90;;;;;;5093749;28;20640;-88
2023/09/06 05:47:30;;;;;;;2.53;0.80;;;20.00;99.90;;;;;;5093790;28;20214;-82
2023/09/06 05:50:01;;;;;;;2.60;0.88;;;19.80;99.90;;;;;;5088752;28;20204;-82
2023/09/06 05:52:32;;;;;;;3.75;0.90;;;19.70;99.90;;;;;;5086991;28;20234;-89
2023/09/06 05:55:03;;;;;;;5.57;0.88;;;19.70;99.90;;;;;;5094042;28;20196;-88
2023/09/06 05:57:36;;;;;;;3.75;1.00;;;19.70;99.90;;;;;;5094442;28;20537;-84
2023/09/06 06:00:12;;;;;;;4.20;0.98;;;19.70;99.90;;;;;;5093193;28;20220;-87
2023/09/06 06:02:43;;;;;;;5.35;0.98;;;19.80;99.90;;;;;;5093745;28;20616;-82
2023/09/06 06:05:14;;;;;;;3.33;1.20;;;19.80;99.90;;;;;;5093113;28;20202;-92
2023/09/06 06:07:45;;;;;;;4.10;0.90;;;19.90;99.90;;;;;;5092359;28;20203;-84
2023/09/06 06:10:16;;;;;;;5.18;0.95;;;19.80;99.90;;;;;;5089557;28;20188;-88
2023/09/06 06:12:49;;;;;;;2.78;0.90;;;19.60;99.90;;;;;;5089085;28;20206;-87
2023/09/06 06:15:20;;;;;;;3.58;0.80;;;19.60;99.90;;;;;;5091963;28;20636;-84
2023/09/06 06:17:51;;;;;;;3.95;0.80;;;19.70;99.90;;;;;;5093455;28;20207;-87
2023/09/06 06:20:22;;;;;;;1.88;0.70;;;19.60;99.90;;;;;;5093858;28;20212;-86
2023/09/06 06:22:52;;;;;;;5.07;0.93;;;19.60;99.90;;;;;;5093995;28;20191;-82
2023/09/06 06:25:23;;;;;;;3.85;0.90;;;19.60;99.90;;;;;;5092613;28;20196;-82
2023/09/06 06:27:56;;;;;;;5.18;1.02;;;19.50;99.90;;;;;;5090387;28;20647;-84
2023/09/06 06:30:27;;;;;;;4.05;0.88;;;19.50;99.90;;;;;;5093954;28;20195;-93
2023/09/06 06:33:00;;;;;;;3.67;0.82;;;19.50;99.90;;;;;;5079054;28;20193;-82
2023/09/06 06:35:30;;;;;;;2.92;0.82;;;19.40;99.90;;;;;;5093500;28;20558;-83
2023/09/06 06:38:02;;;;;;;4.45;1.02;;;19.30;99.90;;;;;;5093356;28;20196;-84
2023/09/06 06:40:32;;;;;;;4.10;0.70;;;19.20;99.90;;;;;;5093481;28;20580;-82
2023/09/06 06:43:05;;;;;;;3.17;0.75;;;19.10;99.90;;;;;;5092129;28;20190;-83
2023/09/06 06:45:36;;;;;;;4.03;1.00;;;19.10;99.90;;;;;;5079350;28;20224;-82
2023/09/06 06:48:07;;;;;;;3.42;0.93;;;19.00;99.90;;;;;;5090158;28;20196;-82
2023/09/06 06:50:37;;;;;;;3.92;1.00;;;19.00;99.90;;;;;;5092903;28;20216;-82
2023/09/06 06:53:08;;;;;;;3.03;0.85;;;18.90;99.90;;;;;;5093351;28;20188;-82
2023/09/06 06:55:39;;;;;;;2.70;1.08;;;18.80;99.90;;;;;;5095093;28;20188;-80
2023/09/06 06:58:14;;;;;;;3.45;0.98;;;18.80;99.90;;;;;;5096167;28;20192;-90
2023/09/06 07:00:44;;;;;;;3.40;1.02;;;18.80;99.90;;;;;;5097235;28;20226;-92
2023/09/06 07:03:17;;;;;;;4.50;1.10;;;18.70;99.90;;;;;;5097959;28;20204;-88
2023/09/06 07:05:47;;;;;;;3.65;0.90;;;18.60;99.90;;;;;;5096551;28;20188;-84
2023/09/06 07:08:18;;;;;;;3.05;1.00;;;18.60;99.90;;;;;;5093210;28;20199;-85
2023/09/06 07:10:49;;;;;;;5.40;1.10;;;18.50;99.90;;;;;;5096729;28;20204;-88
2023/09/06 07:13:22;;;;;;;4.85;1.20;;;18.40;99.90;;;;;;5097159;28;20199;-85
2023/09/06 07:15:52;;;;;;;7.22;1.20;;;18.30;99.90;;;;;;5097218;28;20557;-80
2023/09/06 07:18:23;;;;;;;4.57;1.10;;;18.20;99.90;;;;;;5096777;28;20196;-87
2023/09/06 07:20:54;;;;;;;2.88;1.10;;;18.20;99.90;;;;;;5097013;28;20219;-87
2023/09/06 07:23:25;;;;;;;3.80;0.90;;;18.20;99.90;;;;;;5094309;28;20193;-91
2023/09/06 07:25:55;;;;;;;5.38;1.67;;;18.00;99.90;;;;;;5096025;28;20202;-88
2023/09/06 07:28:31;;;;;;;5.22;1.13;;;18.00;99.90;;;;;;5096595;28;20636;-88
2023/09/06 07:31:02;;;;;;;5.35;1.30;;;17.90;99.90;;;;;;5095564;28;20726;-87
2023/09/06 07:33:33;;;;;;;4.95;1.20;;;17.90;99.90;;;;;;5079338;28;20199;-82
2023/09/06 07:36:04;;;;;;;2.58;0.85;;;17.90;99.90;;;;;;5082565;28;20194;-86
2023/09/06 07:38:34;;;;;;;5.43;0.73;;;17.80;99.90;;;;;;5086925;28;20232;-84
2023/09/06 07:41:06;;;;;;;3.33;1.08;;;17.70;99.90;;;;;;5090326;28;20255;-83
2023/09/06 07:43:40;;;;;;;4.20;1.05;;;17.70;99.90;;;;;;5085284;28;20222;-86
2023/09/06 07:46:12;;;;;;;4.15;1.02;;;17.60;99.90;;;;;;5090213;28;20188;-91
2023/09/06 07:48:43;;;;;;;4.50;0.90;;;17.50;99.90;;;;;;5095555;28;20671;-86
2023/09/06 07:51:14;;;;;;;4.15;0.90;;;17.50;99.90;;;;;;5093364;28;20264;-83
2023/09/06 07:53:45;;;;;;;4.78;1.20;;;17.40;99.90;;;;;;5096109;28;20192;-85
2023/09/06 07:56:16;;;;;;;6.35;1.30;;;17.40;99.90;;;;;;5095173;28;20569;-86
2023/09/06 07:58:49;;;;;;;6.10;1.10;;;17.40;99.90;;;;;;5095705;28;20203;-89
2023/09/06 08:01:20;;;;;;;2.97;1.08;;;17.40;99.90;;;;;;5095582;28;20216;-81
2023/09/06 08:03:50;;;;;;;2.63;1.00;;;17.40;99.90;;;;;;5095728;28;20196;-86
2023/09/06 08:06:21;;;;;;;8.57;1.90;;;17.30;99.90;;;;;;5094011;28;20207;-81
2023/09/06 08:08:52;;;;;;;7.22;1.42;;;17.30;99.90;;;;;;5093165;28;20279;-81
2023/09/06 08:11:23;;;;;;;5.65;1.20;;;17.30;99.90;;;;;;5087177;28;20192;-84
2023/09/06 08:13:56;;;;;;;4.15;1.20;;;17.20;99.90;;;;;;5082915;28;20664;-83
2023/09/06 08:16:27;;;;;;;5.13;1.10;;;17.20;99.90;;;;;;5094311;28;20287;-86
2023/09/06 08:18:58;;;;;;;5.55;1.23;;;17.20;99.90;;;;;;5091578;28;20558;-82
2023/09/06 08:21:29;;;;;;;5.03;1.48;;;17.20;99.90;;;;;;5095242;28;20220;-82
2023/09/06 08:24:01;;;;;;;5.28;1.50;;;17.20;99.90;;;;;;5095418;28;20228;-83
2023/09/06 08:26:32;;;;;;;5.50;1.30;;;17.20;99.90;;;;;;5091719;28;20664;-87
2023/09/06 08:29:08;;;;;;;9.77;1.63;;;17.20;99.90;;;;;;5093738;28;20218;-85
2023/09/06 08:31:38;;;;;;;5.65;1.42;;;17.20;99.90;;;;;;5094889;28;20556;-80
2023/09/06 08:34:09;;;;;;;4.13;1.40;;;17.20;99.90;;;;;;5094591;28;20196;-81
2023/09/06 08:36:40;;;;;;;4.07;1.35;;;17.20;99.90;;;;;;5095078;28;20644;-76
2023/09/06 08:39:15;;;;;;;5.95;1.33;;;17.10;99.90;;;;;;5093384;28;20219;-91
2023/09/06 08:41:50;;;;;;;7.65;1.92;;;17.10;99.90;;;;;;5096649;28;20331;-87
2023/09/06 08:44:26;;;;;;;5.00;1.45;;;17.10;99.90;;;;;;5095559;28;20195;-86
2023/09/06 08:47:02;;;;;;;5.53;1.60;;;17.10;99.90;;;;;;5090938;28;20241;-89
2023/09/06 08:49:33;;;;;;;7.47;2.05;;;17.10;99.90;;;;;;5095171;28;20199;-88
2023/09/06 08:52:05;;;;;;;5.53;1.40;;;17.10;99.90;;;;;;5094807;28;20250;-88
2023/09/06 08:54:37;;;;;;;6.10;1.58;;;17.10;99.90;;;;;;5094387;28;20562;-90
2023/09/06 08:57:08;;;;;;;8.82;1.60;;;17.10;99.90;;;;;;5093983;28;20207;-79
2023/09/06 08:59:43;;;;;;;5.93;1.63;;;17.10;99.90;;;;;;5094247;28;20196;-77
2023/09/06 09:02:14;;;;;;;5.07;1.52;;;17.10;99.90;;;;;;5094472;28;20234;-84
2023/09/06 09:04:45;;;;;;;6.90;1.67;;;17.00;99.90;;;;;;5094877;28;20204;-80
2023/09/06 09:07:19;;;;;;;5.80;1.52;;;17.00;99.90;;;;;;5093983;28;20743;-79
2023/09/06 09:10:01;;;;;;;5.28;1.38;;;17.00;99.90;;;;;;5093742;28;20196;-78
2023/09/06 09:12:33;;;;;;;8.10;1.35;;;17.00;99.90;;;;;;5083351;28;20241;-78
2023/09/06 09:15:06;;;;;;;3.65;1.23;;;17.00;99.90;;;;;;5094155;28;20192;-77
2023/09/06 09:17:39;;;;;;;6.32;1.50;;;17.00;99.90;;;;;;5093273;28;20196;-77
2023/09/06 09:20:11;;;;;;;6.53;1.45;;;17.00;99.90;;;;;;5093532;28;20223;-76
2023/09/06 09:22:43;;;;;;;4.90;1.13;;;17.00;99.90;;;;;;5091866;28;20617;-77
2023/09/06 09:25:16;;;;;;;4.55;0.95;;;17.00;99.90;;;;;;5088579;28;20275;-80
2023/09/06 09:27:50;;;;;;;6.68;1.13;;;17.00;99.90;;;;;;5079140;28;20621;-84
2023/09/06 09:30:23;;;;;;;9.05;1.38;;;17.00;99.90;;;;;;5093040;28;20214;-86
2023/09/06 09:33:02;;;;;;;8.13;1.25;;;17.00;99.90;;;;;;5093928;28;20587;-87
2023/09/06 09:35:35;;;;;;;5.13;1.10;;;16.90;99.90;;;;;;5087903;28;20192;-87
2023/09/06 09:38:06;;;;;;;5.07;1.00;;;16.90;99.90;;;;;;5093634;28;20239;-88
2023/09/06 09:40:37;;;;;;;8.52;1.40;;;16.90;99.90;;;;;;5093468;28;20220;-88
2023/09/06 09:43:08;;;;;;;9.27;1.27;;;16.90;99.90;;;;;;5093756;28;20569;-76
2023/09/06 09:45:48;;;;;;;7.32;1.38;;;16.90;99.90;;;;;;5093326;28;20279;-88
2023/09/06 09:48:19;;;;;;;7.47;1.27;;;16.90;99.90;;;;;;5093764;28;20223;-76
2023/09/06 09:50:53;;;;;;;8.23;1.00;;;16.90;99.90;;;;;;5093822;28;20219;-86
2023/09/06 09:53:25;;;;;;;7.65;1.05;;;16.90;99.90;;;;;;5087947;28;20192;-83
2023/09/06 09:56:00;;;;;;;4.15;1.20;;;16.90;99.90;;;;;;5087906;28;20202;-91
2023/09/06 09:58:35;;;;;;;6.97;0.98;;;16.90;99.90;;;;;;5090834;28;20250;-84
2023/09/06 10:01:10;;;;;;;5.93;1.13;;;16.90;99.90;;;;;;5092961;28;20557;-83
2023/09/06 10:03:42;;;;;;;8.85;1.17;;;16.90;99.90;;;;;;5093616;28;20206;-87
2023/09/06 10:06:13;;;;;;;7.88;1.30;;;16.90;99.90;;;;;;5093417;28;20206;-85
2023/09/06 10:08:47;;;;;;;7.38;1.30;;;16.90;99.90;;;;;;5093260;28;20207;-84
2023/09/06 10:11:20;;;;;;;7.10;1.33;;;16.90;99.90;;;;;;5093168;28;20200;-83
2023/09/06 10:13:51;;;;;;;4.40;1.10;;;16.90;99.90;;;;;;5079666;28;20204;-84
2023/09/06 10:16:25;;;;;;;5.95;1.20;;;16.80;99.90;;;;;;5093397;28;20203;-88
2023/09/06 10:18:55;;;;;;;6.35;0.95;;;16.90;99.90;;;;;;5093192;28;20200;-83
2023/09/06 10:21:27;;;;;;;7.53;1.02;;;16.80;99.90;;;;;;5093165;28;20218;-82
2023/09/06 10:23:58;;;;;;;7.72;1.08;;;16.80;99.90;;;;;;5083143;28;20204;-82
2023/09/06 10:26:34;;;;;;;9.88;1.35;;;16.80;99.90;;;;;;5090344;28;20192;-83
2023/09/06 10:29:10;;;;;;;3.05;0.90;;;16.80;99.90;;;;;;5092398;28;20572;-86
2023/09/06 10:31:50;;;;;;;8.82;1.35;;;16.80;99.90;;;;;;5092782;28;20253;-86
2023/09/06 10:34:21;;;;;;;6.28;1.05;;;16.80;99.90;;;;;;5092599;28;20204;-83
2023/09/06 10:36:54;;;;;;;7.45;1.17;;;16.80;99.90;;;;;;5093102;28;20195;-83
2023/09/06 10:39:26;;;;;;;6.90;0.93;;;16.70;99.90;;;;;;5092131;28;20216;-81
2023/09/06 10:42:23;;;;;;;5.65;1.10;;;16.70;99.90;;;;;;5092862;28;20216;-85
2023/09/06 10:45:19;;;;;;;6.07;1.10;;;16.70;99.90;;;;;;5058380;28;20214;-80
2023/09/06 10:47:53;;;;;;;5.68;1.17;;;16.70;99.90;;;;;;5093114;28;20284;-83
2023/09/06 10:50:25;;;;;;;6.05;1.02;;;16.70;99.90;;;;;;5093010;28;20280;-85
2023/09/06 10:53:00;;;;;;;5.22;1.08;;;16.70;99.90;;;;;;5089789;28;20246;-81
2023/09/06 10:55:31;;;;;;;7.72;1.00;;;16.70;99.90;;;;;;5090547;28;20199;-82
2023/09/06 10:58:10;;;;;;;7.18;1.30;;;16.70;99.90;;;;;;5093808;28;20648;-77
2023/09/06 11:00:42;;;;;;;7.75;1.50;;;16.70;99.90;;;;;;5093127;28;20192;-82
2023/09/06 11:03:21;;;;;;;8.13;1.00;;;16.70;99.90;;;;;;5092490;28;20234;-76
2023/09/06 11:05:56;;;;;;;5.15;1.13;;;16.70;99.90;;;;;;5092928;28;20677;-81
2023/09/06 11:08:34;;;;;;;4.82;1.00;;;16.60;99.90;;;;;;5092728;28;20203;-80
2023/09/06 11:11:09;;;;;;;4.88;1.10;;;16.60;99.90;;;;;;5093030;28;20191;-82
2023/09/06 11:13:40;;;;;;;5.57;1.63;;;16.60;99.90;;;;;;5093098;28;20249;-81
2023/09/06 11:16:16;;;;;;;6.57;1.60;;;16.60;99.90;;;;;;5093173;28;20286;-80
2023/09/06 11:18:49;;;;;;;5.03;1.13;;;16.50;99.90;;;;;;5093190;28;20192;-85
2023/09/06 11:21:22;;;;;;;7.28;1.15;;;16.50;99.90;;;;;;5092500;28;20216;-85
2023/09/06 11:23:56;;;;;;;8.48;1.08;;;16.50;99.90;;;;;;5090885;28;20385;-85
2023/09/06 11:26:27;;;;;;;7.35;1.15;;;16.60;99.90;;;;;;5090811;28;20250;-83
2023/09/06 11:29:05;;;;;;;5.38;1.30;;;16.50;99.90;;;;;;5086344;28;20234;-79
2023/09/06 11:31:36;;;;;;;6.88;1.15;;;16.50;99.90;;;;;;5092907;28;20188;-85
2023/09/06 11:34:12;;;;;;;8.73;1.05;;;16.50;99.90;;;;;;5092528;28;20188;-85
2023/09/06 11:36:43;;;;;;;8.18;1.40;;;16.50;99.90;;;;;;5092266;28;20223;-84
2023/09/06 11:39:18;;;;;;;5.45;1.30;;;16.50;99.90;;;;;;5091633;28;20224;-84
2023/09/06 11:41:50;;;;;;;7.28;1.25;;;16.50;99.90;;;;;;5092702;28;20679;-83
2023/09/06 11:44:23;;;;;;;7.47;1.23;;;16.40;99.90;;;;;;5092506;28;20659;-75
2023/09/06 11:46:55;;;;;;;5.50;1.55;;;16.40;99.90;;;;;;5089737;28;20561;-75
2023/09/06 11:49:29;;;;;;;6.32;1.10;;;16.50;99.90;;;;;;5092680;28;20282;-80
2023/09/06 11:52:05;;;;;;;7.80;1.02;;;16.50;99.90;;;;;;5093704;28;20246;-81
2023/09/06 11:54:39;;;;;;;3.42;1.08;;;16.40;99.90;;;;;;5094750;28;20199;-79
2023/09/06 11:57:18;;;;;;;9.40;1.52;;;16.40;99.90;;;;;;5095261;28;20208;-81
2023/09/06 11:59:57;;;;;;;3.33;1.10;;;16.30;99.90;;;;;;5095512;28;20235;-83
2023/09/06 12:02:30;;;;;;;6.75;1.25;;;16.30;99.90;;;;;;5095234;28;20220;-83
2023/09/06 12:05:11;;;;;;;3.53;0.90;;;16.30;99.90;;;;;;5094510;28;20220;-82
2023/09/06 12:07:43;;;;;;;5.18;1.05;;;16.20;99.90;;;;;;5085827;28;20555;-80
2023/09/06 12:10:20;;;;;;;4.15;1.15;;;16.20;99.90;;;;;;5078540;28;20208;-81
2023/09/06 12:12:52;;;;;;;5.18;1.10;;;16.10;99.90;;;;;;5095057;28;20184;-77
2023/09/06 12:15:24;;;;;;;5.80;1.20;;;16.10;99.90;;;;;;5095418;28;20195;-77
2023/09/06 12:17:56;;;;;;;6.03;1.10;;;16.10;99.90;;;;;;5095198;28;20203;-83
2023/09/06 12:20:29;;;;;;;5.40;1.42;;;16.10;99.90;;;;;;5095080;28;20224;-78
2023/09/06 12:23:02;;;;;;;5.07;1.77;;;16.00;99.90;;;;;;5094948;28;20590;-81
2023/09/06 12:25:34;;;;;;;5.40;2.20;;;15.90;99.90;;;;;;5095130;28;20188;-78
2023/09/06 12:28:05;;;;;;;5.60;1.90;;;15.90;99.90;;;;;;5087300;28;20720;-80
2023/09/06 12:30:35;;;;;;;5.78;2.30;;;15.80;99.90;;;;;;5092078;28;20199;-81
2023/09/06 12:33:06;;;;;;;7.40;2.80;;;15.70;99.90;;;;;;5093841;28;20196;-83
2023/09/06 12:35:40;;;;;;;12.30;4.20;;;15.70;99.90;;;;;;5094904;28;20230;-80
2023/09/06 12:38:11;;;;;;;7.80;3.50;;;15.60;99.90;;;;;;5094812;28;20593;-84
2023/09/06 12:40:42;;;;;;;12.07;4.32;;;15.60;99.90;;;;;;5095038;28;20192;-82
2023/09/06 12:43:12;;;;;;;9.38;4.10;;;15.50;99.90;;;;;;5094720;28;20696;-83
2023/09/06 12:45:45;;;;;;;11.43;4.57;;;15.50;99.90;;;;;;5094451;28;20195;-83
2023/09/06 12:48:16;;;;;;;11.55;5.40;;;15.50;99.90;;;;;;5094065;28;20733;-83
2023/09/06 12:50:50;;;;;;;12.85;5.50;;;15.40;99.90;;;;;;5094161;28;20192;-82
2023/09/06 12:53:21;;;;;;;13.10;5.50;;;15.40;99.90;;;;;;5093800;28;20196;-83
2023/09/06 12:55:51;;;;;;;11.30;6.22;;;15.40;99.90;;;;;;5094600;28;20571;-82
2023/09/06 12:58:24;;;;;;;12.30;6.25;;;15.30;99.90;;;;;;5094148;28;20528;-78
2023/09/06 13:00:57;;;;;;;12.70;6.50;;;15.30;99.90;;;;;;5094284;28;20310;-82
2023/09/06 13:03:28;;;;;;;16.15;7.50;;;15.30;99.90;;;;;;5094302;28;20643;-80
2023/09/06 13:06:05;;;;;;;15.30;7.85;;;15.20;99.90;;;;;;5094070;28;20215;-82
2023/09/06 13:08:36;;;;;;;18.15;9.23;;;15.20;99.90;;;;;;5094238;28;20639;-82
2023/09/06 13:11:07;;;;;;;19.52;8.77;;;15.10;99.90;;;;;;5094083;28;20662;-82